createdAt,value
2022-12-16T00:00:37.925Z,2.85
2022-12-16T00:05:44.413Z,2.77
2022-12-16T00:10:46.084Z,2.79
2022-12-16T00:15:47.602Z,2.81
2022-12-16T00:20:52.272Z,2.75
2022-12-16T00:25:56.457Z,2.73
2022-12-16T00:30:57.887Z,2.77
2022-12-16T00:35:59.291Z,2.86
2022-12-16T00:41:01.121Z,2.85
2022-12-16T00:46:02.704Z,2.83
2022-12-16T00:51:04.367Z,2.74
2022-12-16T00:56:08.639Z,2.70
2022-12-16T01:01:10.729Z,2.71
2022-12-16T01:06:15.469Z,2.79
2022-12-16T01:11:19.291Z,2.83
2022-12-16T01:16:20.793Z,2.74
2022-12-16T01:21:22.443Z,2.74
2022-12-16T01:26:24.025Z,2.83
2022-12-16T01:31:25.664Z,2.85
2022-12-16T01:36:27.343Z,2.80
2022-12-16T01:41:28.885Z,2.76
2022-12-16T01:46:30.562Z,2.71
2022-12-16T01:51:38.867Z,2.69
2022-12-16T01:56:46.042Z,2.67
2022-12-16T02:01:47.581Z,2.77
2022-12-16T02:06:49.387Z,2.75
2022-12-16T02:12:20.448Z,2.82
2022-12-16T02:17:56.923Z,2.78
2022-12-16T02:23:26.203Z,2.66
2022-12-16T02:29:03.089Z,2.57
2022-12-16T02:34:30.501Z,2.60
2022-12-16T02:39:36.991Z,2.57
2022-12-16T02:45:04.786Z,2.61
2022-12-16T02:50:20.382Z,2.67
2022-12-16T02:55:32.877Z,2.75
2022-12-16T03:00:48.086Z,2.76
2022-12-16T03:05:51.349Z,2.74
2022-12-16T03:11:03.205Z,2.79
2022-12-16T03:16:07.451Z,2.64
2022-12-16T03:21:10.126Z,2.61
2022-12-16T03:26:18.947Z,2.57
2022-12-16T03:31:55.613Z,2.50
2022-12-16T03:37:02.594Z,2.43
2022-12-16T03:42:05.379Z,2.24
2022-12-16T03:47:06.852Z,2.34
2022-12-16T03:52:08.738Z,2.35
2022-12-16T03:57:15.017Z,2.36
2022-12-16T04:02:17.294Z,2.49
2022-12-16T04:07:18.921Z,2.45
2022-12-16T04:12:20.912Z,2.48
2022-12-16T04:17:22.414Z,2.51
2022-12-16T04:22:27.507Z,2.56
2022-12-16T04:27:29.049Z,2.56
2022-12-16T04:32:31.225Z,2.55
2022-12-16T04:37:32.724Z,2.52
2022-12-16T04:42:34.223Z,2.56
2022-12-16T04:47:35.685Z,2.53
2022-12-16T04:52:37.107Z,2.51
2022-12-16T04:57:38.622Z,2.58
2022-12-16T05:02:40.157Z,2.61
2022-12-16T05:07:41.692Z,2.59
2022-12-16T05:12:43.208Z,2.58
2022-12-16T05:17:44.648Z,2.58
2022-12-16T05:22:46.230Z,2.57
2022-12-16T05:27:52.109Z,2.53
2022-12-16T05:32:53.568Z,2.55
2022-12-16T05:37:57.126Z,2.52
2022-12-16T05:42:58.569Z,2.54
2022-12-16T05:48:00.033Z,2.51
2022-12-16T05:53:01.456Z,2.57
2022-12-16T05:58:02.971Z,2.63
2022-12-16T06:03:04.643Z,2.64
2022-12-16T06:08:06.207Z,2.53
2022-12-16T06:13:07.653Z,2.43
2022-12-16T06:18:09.066Z,2.38
2022-12-16T06:23:10.510Z,2.40
2022-12-16T06:28:11.943Z,2.44
2022-12-16T06:33:13.463Z,2.50
2022-12-16T06:38:14.956Z,2.47
2022-12-16T06:43:16.384Z,2.46
2022-12-16T06:48:17.926Z,2.53
2022-12-16T06:53:19.524Z,2.56
2022-12-16T06:58:20.994Z,2.49
2022-12-16T07:03:22.521Z,2.46
2022-12-16T07:08:23.980Z,2.60
2022-12-16T07:13:25.462Z,2.67
2022-12-16T07:18:26.893Z,2.75
2022-12-16T07:23:28.344Z,2.61
2022-12-16T07:28:29.823Z,2.54
2022-12-16T07:33:31.511Z,2.55
2022-12-16T07:38:33.228Z,2.45
2022-12-16T07:43:34.968Z,2.46
2022-12-16T07:48:36.680Z,2.44
2022-12-16T07:53:38.808Z,2.43
2022-12-16T07:58:40.865Z,2.53
2022-12-16T08:03:42.344Z,2.60
2022-12-16T08:08:43.874Z,2.61
2022-12-16T08:13:45.296Z,2.68
2022-12-16T08:18:46.780Z,2.69
2022-12-16T08:23:48.366Z,2.58
2022-12-16T08:28:50.404Z,2.62
2022-12-16T08:33:51.919Z,2.63
2022-12-16T08:38:54.195Z,2.62
2022-12-16T08:43:57.243Z,2.45
2022-12-16T08:48:58.673Z,2.53
2022-12-16T08:54:00.105Z,2.65
2022-12-16T08:59:01.644Z,2.76
2022-12-16T09:04:03.199Z,2.74
2022-12-16T09:09:04.812Z,2.74
2022-12-16T09:14:06.304Z,2.76
2022-12-16T09:19:07.815Z,2.77
2022-12-16T09:24:09.532Z,2.65
2022-12-16T09:29:10.964Z,2.63
2022-12-16T09:34:12.376Z,2.49
2022-12-16T09:39:13.808Z,2.49
2022-12-16T09:44:30.531Z,2.59
2022-12-16T09:49:49.730Z,2.59
2022-12-16T09:54:51.427Z,2.52
2022-12-16T10:00:02.610Z,2.58
2022-12-16T10:05:12.596Z,2.75
2022-12-16T10:10:29.645Z,2.95
2022-12-16T10:15:56.269Z,2.93
2022-12-16T10:20:57.917Z,2.98
2022-12-16T10:26:12.311Z,2.89
2022-12-16T10:31:17.135Z,2.95
2022-12-16T10:36:23.662Z,2.98
2022-12-16T10:41:29.253Z,2.86
2022-12-16T10:46:35.079Z,2.84
2022-12-16T10:51:36.509Z,2.75
2022-12-16T10:56:43.714Z,2.72
2022-12-16T11:02:00.576Z,2.73
2022-12-16T11:07:02.120Z,2.63
2022-12-16T11:12:32.032Z,2.59
2022-12-16T11:17:33.466Z,2.55
2022-12-16T11:22:34.923Z,2.56
2022-12-16T11:27:37.618Z,2.55
2022-12-16T11:32:43.715Z,2.57
2022-12-16T11:37:47.783Z,2.60
2022-12-16T11:42:49.349Z,2.59
2022-12-16T11:48:05.753Z,2.53
2022-12-16T11:53:31.525Z,2.59
2022-12-16T11:58:36.250Z,2.61
2022-12-16T12:03:43.894Z,2.58
2022-12-16T12:08:51.800Z,2.63
2022-12-16T12:13:56.174Z,2.50
2022-12-16T12:19:14.737Z,2.55
2022-12-16T12:24:31.474Z,2.48
2022-12-16T12:29:44.702Z,2.51
2022-12-16T12:35:18.270Z,2.53
2022-12-16T12:40:19.784Z,2.44
2022-12-16T12:45:39.951Z,2.44
2022-12-16T12:50:49.927Z,2.42
2022-12-16T12:56:36.339Z,2.35
2022-12-16T13:01:42.931Z,2.30
2022-12-16T13:06:44.765Z,2.33
2022-12-16T13:12:12.177Z,2.28
2022-12-16T13:17:13.680Z,2.28
2022-12-16T13:22:34.093Z,2.22
2022-12-16T13:27:49.987Z,2.24
2022-12-16T13:33:04.947Z,2.25
2022-12-16T13:38:20.551Z,2.17
2022-12-16T13:43:53.035Z,2.13
2022-12-16T13:49:34.900Z,2.01
2022-12-16T13:54:41.616Z,1.93
2022-12-16T13:59:43.692Z,1.94
2022-12-16T14:04:52.477Z,2.01
2022-12-16T14:09:54.003Z,2.02
2022-12-16T14:15:38.610Z,2.13
2022-12-16T14:21:04.626Z,2.18
2022-12-16T14:26:12.190Z,2.22
2022-12-16T14:31:35.314Z,2.21
2022-12-16T14:36:39.703Z,2.23
2022-12-16T14:41:41.205Z,2.22
2022-12-16T14:46:42.801Z,2.19
2022-12-16T14:51:48.305Z,2.19
2022-12-16T14:56:49.805Z,2.30
2022-12-16T15:01:53.454Z,2.31
2022-12-16T15:06:55.797Z,2.38
2022-12-16T15:11:57.443Z,2.34
2022-12-16T15:16:59.253Z,2.19
2022-12-16T15:22:01.158Z,2.15
2022-12-16T15:27:20.979Z,2.15
2022-12-16T15:32:29.355Z,2.14
2022-12-16T15:37:39.675Z,2.19
2022-12-16T15:42:42.010Z,2.14
2022-12-16T15:47:43.480Z,2.04
2022-12-16T15:52:45.128Z,1.98
2022-12-16T15:57:56.521Z,2.06
2022-12-16T16:02:58.206Z,2.12
2022-12-16T16:08:03.655Z,2.03
2022-12-16T16:13:06.372Z,2.00
2022-12-16T16:18:10.061Z,2.01
2022-12-16T16:23:12.156Z,1.99
2022-12-16T16:28:13.626Z,1.93
2022-12-16T16:33:15.156Z,1.81
2022-12-16T16:38:18.554Z,1.78
2022-12-16T16:43:21.229Z,1.85
2022-12-16T16:48:30.105Z,1.95
2022-12-16T16:53:31.946Z,1.90
2022-12-16T16:58:34.386Z,1.82
2022-12-16T17:03:36.422Z,1.80
2022-12-16T17:08:38.369Z,1.80
2022-12-16T17:13:39.799Z,1.88
2022-12-16T17:18:45.598Z,1.89
2022-12-16T17:23:49.848Z,1.85
2022-12-16T17:28:51.362Z,1.93
2022-12-16T17:33:52.875Z,1.92
2022-12-16T17:38:54.312Z,1.93
2022-12-16T17:43:55.734Z,1.92
2022-12-16T17:48:58.713Z,1.93
2022-12-16T17:54:02.073Z,1.92
2022-12-16T17:59:11.057Z,1.90
2022-12-16T18:04:12.785Z,1.85
2022-12-16T18:09:14.242Z,1.79
2022-12-16T18:14:15.670Z,1.76
2022-12-16T18:19:17.800Z,1.67
2022-12-16T18:24:19.268Z,1.64
2022-12-16T18:29:20.847Z,1.62
2022-12-16T18:34:22.395Z,1.64
2022-12-16T18:39:24.015Z,1.61
2022-12-16T18:44:25.500Z,1.63
2022-12-16T18:49:26.999Z,1.53
2022-12-16T18:54:28.520Z,1.46
2022-12-16T18:59:29.964Z,1.43
2022-12-16T19:04:34.311Z,1.53
2022-12-16T19:09:35.727Z,1.49
2022-12-16T19:14:37.136Z,1.38
2022-12-16T19:19:38.545Z,1.39
2022-12-16T19:24:40.056Z,1.38
2022-12-16T19:29:41.554Z,1.47
2022-12-16T19:34:43.052Z,1.47
2022-12-16T19:39:44.477Z,1.47
2022-12-16T19:44:45.978Z,1.40
2022-12-16T19:49:47.453Z,1.37
2022-12-16T19:54:48.949Z,1.31
2022-12-16T19:59:50.395Z,1.26
2022-12-16T20:04:53.175Z,1.24
2022-12-16T20:09:57.825Z,1.18
2022-12-16T20:14:59.335Z,1.15
2022-12-16T20:20:00.848Z,1.10
2022-12-16T20:25:02.391Z,1.09
2022-12-16T20:30:04.524Z,1.11
2022-12-16T20:35:06.125Z,1.11
2022-12-16T20:40:08.164Z,1.05
2022-12-16T20:45:11.687Z,0.98
2022-12-16T20:50:14.536Z,1.01
2022-12-16T20:55:16.046Z,1.02
2022-12-16T21:00:17.617Z,0.96
2022-12-16T21:05:19.213Z,0.91
2022-12-16T21:10:20.836Z,0.92
2022-12-16T21:15:22.392Z,0.90
2022-12-16T21:20:23.869Z,0.96
2022-12-16T21:25:25.370Z,0.95
2022-12-16T21:30:27.191Z,1.00
2022-12-16T21:35:29.082Z,1.01
2022-12-16T21:40:30.548Z,0.92
2022-12-16T21:45:31.993Z,0.91
2022-12-16T21:50:33.468Z,0.88
2022-12-16T21:55:35.237Z,0.97
2022-12-16T22:00:36.746Z,1.02
2022-12-16T22:05:38.184Z,1.06
2022-12-16T22:10:39.652Z,1.07
2022-12-16T22:15:41.060Z,1.16
2022-12-16T22:20:42.472Z,1.22
2022-12-16T22:25:44.044Z,1.21
2022-12-16T22:30:53.057Z,1.22
2022-12-16T22:36:05.211Z,1.09
2022-12-16T22:41:06.755Z,0.97
2022-12-16T22:46:08.334Z,0.98
2022-12-16T22:51:14.526Z,1.02
2022-12-16T22:56:16.028Z,1.10
2022-12-16T23:01:17.477Z,1.17
2022-12-16T23:06:18.895Z,1.22
2022-12-16T23:11:25.944Z,1.22
2022-12-16T23:16:27.516Z,1.20
2022-12-16T23:21:29.062Z,1.16
2022-12-16T23:26:30.504Z,1.18
2022-12-16T23:31:31.995Z,1.27
2022-12-16T23:36:33.559Z,1.35
2022-12-16T23:41:34.993Z,1.32
2022-12-16T23:46:36.521Z,1.36
2022-12-16T23:51:37.992Z,1.29
2022-12-16T23:56:39.491Z,1.29
